Mckinley Sea — WDE5024 — position and weather

sailwx.info

Track history (hours):
 
Tides and Currents Weather Stations Pressure Air Temp Water Temp Dewpoint Dewpoint Depression Visibility Wind Speed Wind Dir Waves Ship Positions

Mckinley Sea

Owner: Kirby Offshore Marine, LLC, Staten Island, NY. More information available from US FCC via Universal Licensing System and Coast Guard Vessel Documentation Center.

Last reported at 2017-Apr-23 20:37 UTC. Time now 2017-Apr-24 01:34 UTC.
Position N 41°08' W 072°37'.

Length 41 m; draft 6 m.

Type: . MMSI: 367360980.

Date/timePositionNaut miles runAvg speedWind from/ knotsBaromVisibWave heightAir tempDewpointWater temp
2017-Apr-23 20:37N 41°08' W 072°37'4 8.1
2017-Apr-23 20:09N 41°08' W 072°32'1 7.8
2017-Apr-23 20:01N 41°09' W 072°31'4 7.3
2017-Apr-23 19:29N 41°09' W 072°26'4 7.5
2017-Apr-23 19:00N 41°11' W 072°21'52 7.3
2017-Apr-23 11:49N 41°34' W 071°19'3 9.5
2017-Apr-23 11:30N 41°37' W 071°18'4 8.8
2017-Apr-23 11:00N 41°41' W 071°19'4 8.6
2017-Apr-23 10:30N 41°45' W 071°22'2 3.3
2017-Apr-23 09:53N 41°47' W 071°22'0 0.0
2017-Apr-22 13:58N 41°47' W 071°22'0 0.1
2017-Apr-22 13:25N 41°47' W 071°22'1 3.0
2017-Apr-22 13:00N 41°46' W 071°23'9 6.9
2017-Apr-22 11:43N 41°38' W 071°18'45 6.0
2017-Apr-22 04:17N 41°14' W 072°08'7 9.1
2017-Apr-22 03:34N 41°12' W 072°16'3 9.9
2017-Apr-22 03:15N 41°11' W 072°20'3 9.5
2017-Apr-22 02:58N 41°10' W 072°24'5 9.1
2017-Apr-22 02:25N 41°09' W 072°30'4 8.3
2017-Apr-22 02:00N 41°08' W 072°35'4 8.1
2017-Apr-22 01:30N 41°07' W 072°40'47 7.0
2017-Apr-21 18:46N 40°54' W 073°40'2 7.3
2017-Apr-21 18:26N 40°53' W 073°43'4 7.7
2017-Apr-21 17:51N 40°50' W 073°47'3 5.7
2017-Apr-21 17:23N 40°48' W 073°49'3 7.2
2017-Apr-21 16:59N 40°48' W 073°53'3 5.9
2017-Apr-21 16:30N 40°47' W 073°56'3 5.7
2017-Apr-21 16:00N 40°44' W 073°58'3 5.1
2017-Apr-21 15:30N 40°42' W 074°00'3 5.7
2017-Apr-21 15:00N 40°40' W 074°03'3 5.8
2017-Apr-21 14:30N 40°39' W 074°06'5 5.1
2017-Apr-21 13:30N 40°37' W 074°12'4 0.2
2017-Apr-20 21:52N 40°34' W 074°14'0 0.0
2017-Apr-20 21:28N 40°34' W 074°14'0 0.0
2017-Apr-20 20:58N 40°34' W 074°14'0 0.0
2017-Apr-20 17:28N 40°34' W 074°14'0 0.0
2017-Apr-20 08:58N 40°34' W 074°14'4 1.3
2017-Apr-20 05:53N 40°30' W 074°11'2 4.2
2017-Apr-20 05:30N 40°30' W 074°09'2 4.5
2017-Apr-20 05:00N 40°29' W 074°06'2 4.8
2017-Apr-20 04:30N 40°30' W 074°03'3 6.9
2017-Apr-20 04:00N 40°33' W 074°02'3 5.4
2017-Apr-20 03:29N 40°36' W 074°02'0 0.2
2017-Apr-20 02:59N 40°36' W 074°01'0 0.1
2017-Apr-20 02:29N 40°36' W 074°01'0 0.0
2017-Apr-20 01:56N 40°36' W 074°01'0 0.2
2017-Apr-20 01:29N 40°36' W 074°02'0 0.1
2017-Apr-20 00:56N 40°36' W 074°02'0 0.1
2017-Apr-20 00:26N 40°36' W 074°02'0 0.1
2017-Apr-19 23:59N 40°36' W 074°01'0 0.1
2017-Apr-19 23:26N 40°36' W 074°01'0 0.0
2017-Apr-19 22:53N 40°36' W 074°01'0 0.0
2017-Apr-19 22:29N 40°36' W 074°01'0 0.0
2017-Apr-19 21:53N 40°36' W 074°01'0 0.0
2017-Apr-19 21:29N 40°36' W 074°01'0 0.0
2017-Apr-19 20:59N 40°36' W 074°02'0 0.0
2017-Apr-19 20:29N 40°36' W 074°02'0 0.0
2017-Apr-19 19:59N 40°36' W 074°01'0 0.0
2017-Apr-19 19:29N 40°36' W 074°02'0 0.1
2017-Apr-19 18:59N 40°36' W 074°02'0 0.0
2017-Apr-19 18:29N 40°36' W 074°02'0 0.0
2017-Apr-19 17:56N 40°36' W 074°02'0 0.0
2017-Apr-19 17:29N 40°36' W 074°02'0 0.0
2017-Apr-19 16:59N 40°36' W 074°02'0 0.0
2017-Apr-19 16:26N 40°36' W 074°02'0 0.0
2017-Apr-19 15:59N 40°36' W 074°02'0 0.1
2017-Apr-19 15:29N 40°36' W 074°01'0 0.0
2017-Apr-19 14:53N 40°36' W 074°01'0 0.1
2017-Apr-19 14:29N 40°36' W 074°02'0 0.0
2017-Apr-19 13:23N 40°36' W 074°02'0 0.1
2017-Apr-19 12:59N 40°36' W 074°02'0 0.0
2017-Apr-19 12:29N 40°36' W 074°02'0 0.1
2017-Apr-19 11:59N 40°36' W 074°02'0 0.1
2017-Apr-19 11:29N 40°36' W 074°02'0 0.0
2017-Apr-19 10:59N 40°36' W 074°02'0 0.3
2017-Apr-19 10:29N 40°36' W 074°01'0 0.1
2017-Apr-19 09:50N 40°36' W 074°01'0 0.1
2017-Apr-19 09:29N 40°36' W 074°02'0 0.1
2017-Apr-19 08:59N 40°36' W 074°02'0 0.0
2017-Apr-19 08:29N 40°36' W 074°02'0 0.0
2017-Apr-19 07:59N 40°36' W 074°02'0 0.0
2017-Apr-19 07:26N 40°36' W 074°02'0 0.1
2017-Apr-19 06:59N 40°36' W 074°02'0 0.0
2017-Apr-19 06:29N 40°36' W 074°02'0 0.0
2017-Apr-19 05:59N 40°36' W 074°02'0 0.0
2017-Apr-19 05:29N 40°36' W 074°02'0 0.2
2017-Apr-19 04:53N 40°36' W 074°02'0 0.0
2017-Apr-19 04:20N 40°36' W 074°02'0 0.1
2017-Apr-19 03:59N 40°36' W 074°02'0 0.0
2017-Apr-19 03:29N 40°36' W 074°02'0 0.0
2017-Apr-19 02:59N 40°36' W 074°02'0 0.0
2017-Apr-19 02:29N 40°36' W 074°02'0 0.1
2017-Apr-19 01:59N 40°36' W 074°02'0 0.1
2017-Apr-19 01:29N 40°36' W 074°02'0 0.0
2017-Apr-19 00:59N 40°36' W 074°01'0 0.0
2017-Apr-19 00:29N 40°36' W 074°01'0 0.0
2017-Apr-18 23:59N 40°36' W 074°01'0 0.3
2017-Apr-18 23:29N 40°36' W 074°01'0 0.4
2017-Apr-18 23:00N 40°36' W 074°02'4 7.9
2017-Apr-18 22:31N 40°39' W 074°05'4 8.6
2017-Apr-18 22:01N 40°39' W 074°10'3 5.6
2017-Apr-18 21:29N 40°36' W 074°12'0 0.0
2017-Apr-18 20:16N 40°36' W 074°12'0 0.0
2017-Apr-18 19:49N 40°36' W 074°12'0 0.0
2017-Apr-18 19:25N 40°36' W 074°12'0 0.0
2017-Apr-18 18:55N 40°36' W 074°12'0 0.0
2017-Apr-18 18:19N 40°36' W 074°12'0 0.0
2017-Apr-18 17:55N 40°36' W 074°12'0 0.0
2017-Apr-18 16:55N 40°36' W 074°12'0 0.0
2017-Apr-18 13:07N 40°36' W 074°12'0 0.0
2017-Apr-18 12:46N 40°36' W 074°12'0 0.0
2017-Apr-18 11:19N 40°36' W 074°12'0 0.0
2017-Apr-18 10:52N 40°36' W 074°12'0 0.0
2017-Apr-18 10:22N 40°36' W 074°12'0 0.0
2017-Apr-18 09:55N 40°36' W 074°12'0 0.0
2017-Apr-18 09:25N 40°36' W 074°12'0 0.0
2017-Apr-18 08:55N 40°36' W 074°12'0 0.0
2017-Apr-18 08:28N 40°36' W 074°12'0 0.0
2017-Apr-18 07:58N 40°36' W 074°12'0 0.0
2017-Apr-18 07:28N 40°36' W 074°12'0 0.0
2017-Apr-18 06:52N 40°36' W 074°12'0 0.0
2017-Apr-18 05:49N 40°36' W 074°12'0 0.0
2017-Apr-18 03:56N 40°36' W 074°12'0 0.6
2017-Apr-18 03:30N 40°37' W 074°12'3 5.6
2017-Apr-18 03:01N 40°39' W 074°10'4 7.1
2017-Apr-18 02:31N 40°39' W 074°05'3 6.0
2017-Apr-18 02:01N 40°37' W 074°03'0 0.4
2017-Apr-18 01:29N 40°36' W 074°03'0 0.0
2017-Apr-18 00:59N 40°36' W 074°03'0 0.0
2017-Apr-18 00:29N 40°36' W 074°03'0 0.0
2017-Apr-17 23:59N 40°36' W 074°03'0 0.0
2017-Apr-17 23:29N 40°36' W 074°03'0 0.0
2017-Apr-17 22:59N 40°36' W 074°03'0 0.0
2017-Apr-17 22:29N 40°36' W 074°03'0 0.0
2017-Apr-17 21:59N 40°36' W 074°03'0 0.0
2017-Apr-17 21:26N 40°36' W 074°03'0 0.0
2017-Apr-17 20:59N 40°36' W 074°03'0 0.0
2017-Apr-17 20:29N 40°36' W 074°03'0 0.0
2017-Apr-17 19:56N 40°36' W 074°03'0 0.1
2017-Apr-17 19:29N 40°37' W 074°03'0 0.3
2017-Apr-17 18:59N 40°37' W 074°03'0 0.1
2017-Apr-17 18:29N 40°37' W 074°03'0 0.1
2017-Apr-17 17:59N 40°37' W 074°03'0 0.0
2017-Apr-17 17:29N 40°37' W 074°03'0 0.0
2017-Apr-17 16:59N 40°37' W 074°03'0 0.0
2017-Apr-17 16:29N 40°37' W 074°03'0 0.1
2017-Apr-17 15:59N 40°37' W 074°03'0 0.0
2017-Apr-17 15:26N 40°37' W 074°03'0 0.2
2017-Apr-17 14:59N 40°37' W 074°03'0 0.2
2017-Apr-17 13:56N 40°36' W 074°03'0 0.0
2017-Apr-17 13:29N 40°36' W 074°03'0 0.0
2017-Apr-17 12:59N 40°36' W 074°03'0 0.0
2017-Apr-17 12:29N 40°36' W 074°03'0 0.0
2017-Apr-17 11:59N 40°36' W 074°03'0 0.0
2017-Apr-17 11:29N 40°36' W 074°03'0 0.1
2017-Apr-17 11:00N 40°36' W 074°03'0 0.1
2017-Apr-17 10:30N 40°36' W 074°03'0 0.0
2017-Apr-17 10:00N 40°36' W 074°03'0 0.1
2017-Apr-17 09:30N 40°36' W 074°03'0 0.0
2017-Apr-17 09:00N 40°36' W 074°03'0 0.0
2017-Apr-17 08:30N 40°36' W 074°03'0 0.5
2017-Apr-17 08:00N 40°36' W 074°03'0 0.6
2017-Apr-17 07:30N 40°36' W 074°03'1 1.4
2017-Apr-17 07:00N 40°35' W 074°02'1 2.2
2017-Apr-17 06:30N 40°34' W 074°02'0 0.1
2017-Apr-17 06:00N 40°34' W 074°02'2 3.8
2017-Apr-17 05:30N 40°33' W 074°02'4 6.2
2017-Apr-17 04:54N 40°29' W 074°03'3 0.4
2017-Apr-16 22:44N 40°29' W 074°07'0 0.0
2017-Apr-16 22:29N 40°29' W 074°07'0 0.0
2017-Apr-16 21:44N 40°29' W 074°07'0 0.1
2017-Apr-16 21:29N 40°29' W 074°07'0 0.0
2017-Apr-16 20:59N 40°29' W 074°07'0 0.0
2017-Apr-16 19:41N 40°29' W 074°07'0 0.0
2017-Apr-15 18:01N 40°29' W 074°07'0 1.1
2017-Apr-15 18:00N 40°29' W 074°07'0 0.1
2017-Apr-15 17:24N 40°29' W 074°07'1 3.0
2017-Apr-15 17:00N 40°29' W 074°05'3 5.3
2017-Apr-15 16:30N 40°31' W 074°03'4 7.7
2017-Apr-15 16:00N 40°35' W 074°02'4 7.5
2017-Apr-15 15:30N 40°39' W 074°03'1 2.8
2017-Apr-15 15:00N 40°40' W 074°02'6 5.8
2017-Apr-15 14:00N 40°39' W 074°10'0 0.0
2017-Apr-15 13:30N 40°39' W 074°10'0 0.0
2017-Apr-15 13:00N 40°39' W 074°10'0 0.0
2017-Apr-15 12:30N 40°39' W 074°10'0 0.0
2017-Apr-15 12:00N 40°39' W 074°10'0 0.0
2017-Apr-15 11:30N 40°39' W 074°10'0 0.0
2017-Apr-15 11:00N 40°39' W 074°10'0 0.5
2017-Apr-15 10:30N 40°38' W 074°10'4 8.7
2017-Apr-15 10:00N 40°39' W 074°04'1 2.3
2017-Apr-15 09:29N 40°40' W 074°03'0 0.0
2017-Apr-15 09:00N 40°40' W 074°03'0 0.0
2017-Apr-15 08:29N 40°40' W 074°03'0 0.0
2017-Apr-15 07:59N 40°40' W 074°03'0 0.0
2017-Apr-15 07:29N 40°40' W 074°03'0 0.0
2017-Apr-15 06:59N 40°40' W 074°03'0 0.1
2017-Apr-15 06:30N 40°40' W 074°03'0 0.2
2017-Apr-15 06:00N 40°40' W 074°03'0 0.2
2017-Apr-15 05:30N 40°40' W 074°03'0 0.0
2017-Apr-15 05:00N 40°40' W 074°03'0 0.0
2017-Apr-15 04:29N 40°40' W 074°03'0 0.1
2017-Apr-15 03:59N 40°40' W 074°02'0 0.1
2017-Apr-15 03:29N 40°40' W 074°02'0 0.0
2017-Apr-15 02:59N 40°40' W 074°02'0 0.0
2017-Apr-15 02:30N 40°40' W 074°02'0 0.1
2017-Apr-15 01:59N 40°40' W 074°03'0 0.2
2017-Apr-15 01:29N 40°40' W 074°03'0 0.2
2017-Apr-15 00:59N 40°40' W 074°03'0 0.1
2017-Apr-15 00:29N 40°40' W 074°03'0 0.1
2017-Apr-14 23:59N 40°40' W 074°03'0 0.1
2017-Apr-14 23:29N 40°40' W 074°03'0 0.0
2017-Apr-14 22:59N 40°40' W 074°03'0 0.0
2017-Apr-14 22:30N 40°40' W 074°03'0 0.0
2017-Apr-14 21:59N 40°40' W 074°03'0 0.0
2017-Apr-14 21:29N 40°40' W 074°03'0 0.0
2017-Apr-14 20:59N 40°40' W 074°03'0 0.0
2017-Apr-14 20:29N 40°40' W 074°03'0 0.0
2017-Apr-14 20:00N 40°40' W 074°03'0 0.0
2017-Apr-14 19:30N 40°40' W 074°03'0 0.0
2017-Apr-14 19:00N 40°40' W 074°03'0 0.0
2017-Apr-14 18:30N 40°40' W 074°03'0 0.1
2017-Apr-14 18:00N 40°40' W 074°03'0 0.3
2017-Apr-14 17:30N 40°40' W 074°03'0 0.1
2017-Apr-14 17:00N 40°40' W 074°02'2 4.7
2017-Apr-14 16:30N 40°42' W 074°00'1 2.1
2017-Apr-14 16:00N 40°42' W 073°59'3 6.7
2017-Apr-14 15:30N 40°40' W 074°02'0 0.0
2017-Apr-14 15:00N 40°40' W 074°02'0 0.1
2017-Apr-14 14:00N 40°40' W 074°03'0 0.1
2017-Apr-14 13:30N 40°40' W 074°03'0 0.0
2017-Apr-14 13:00N 40°40' W 074°03'0 0.1
2017-Apr-14 12:30N 40°40' W 074°03'0 0.0
2017-Apr-14 12:00N 40°40' W 074°03'0 0.0
2017-Apr-14 11:30N 40°40' W 074°03'0 0.0
2017-Apr-14 11:00N 40°40' W 074°03'0 0.0
2017-Apr-14 10:30N 40°40' W 074°03'0 0.0
2017-Apr-14 10:00N 40°40' W 074°03'0 0.0
2017-Apr-14 09:30N 40°40' W 074°03'0 0.0
2017-Apr-14 09:00N 40°40' W 074°03'0 0.0
2017-Apr-14 08:30N 40°40' W 074°03'0 0.0
2017-Apr-14 08:00N 40°40' W 074°03'0 0.0
2017-Apr-14 07:30N 40°40' W 074°03'0 0.0
2017-Apr-14 07:00N 40°40' W 074°03'0 0.0
2017-Apr-14 06:30N 40°40' W 074°03'0 0.1
2017-Apr-14 06:00N 40°40' W 074°03'0 0.1
2017-Apr-14 05:30N 40°40' W 074°03'0 0.3
2017-Apr-14 05:00N 40°40' W 074°03'0 0.1
2017-Apr-14 04:30N 40°40' W 074°03'0 0.1
2017-Apr-14 04:00N 40°40' W 074°03'0 0.1
2017-Apr-14 03:30N 40°40' W 074°03'0 0.1
2017-Apr-14 03:00N 40°40' W 074°02'0 0.1
2017-Apr-14 02:30N 40°40' W 074°02'0 0.1
2017-Apr-14 02:00N 40°40' W 074°02'0 0.1
2017-Apr-14 01:30N 40°40' W 074°02'0 0.2
2017-Apr-14 01:00N 40°40' W 074°03'0 0.1
2017-Apr-14 00:30N 40°40' W 074°03'0 0.2
2017-Apr-14 00:00N 40°40' W 074°02'0 0.1
2017-Apr-13 23:30N 40°40' W 074°03'0 0.0
2017-Apr-13 23:00N 40°40' W 074°03'0 0.0
2017-Apr-13 22:30N 40°40' W 074°03'0 0.0
2017-Apr-13 22:00N 40°40' W 074°03'0 0.0
2017-Apr-13 21:30N 40°40' W 074°03'0 0.0
2017-Apr-13 21:00N 40°40' W 074°03'  
Track history (hours):
 
Tides and Currents Weather Stations Pressure Air Temp Water Temp Dewpoint Dewpoint Depression Visibility Wind Speed Wind Dir Waves Ship Positions

Mckinley Sea

Owner: Kirby Offshore Marine, LLC, Staten Island, NY. More information available from US FCC via Universal Licensing System and Coast Guard Vessel Documentation Center.

Last reported at 2017-Apr-23 20:37 UTC. Time now 2017-Apr-24 01:34 UTC.
Position N 41°08' W 072°37'.

Length 41 m; draft 6 m.

Type: . MMSI: 367360980.

Date/timePositionNaut miles runAvg speedWind from/ knotsBaromVisibWave heightAir tempDewpointWater temp
2017-Apr-23 20:37N 41°08' W 072°37'4 8.1
2017-Apr-23 20:09N 41°08' W 072°32'1 7.8
2017-Apr-23 20:01N 41°09' W 072°31'4 7.3
2017-Apr-23 19:29N 41°09' W 072°26'4 7.5
2017-Apr-23 19:00N 41°11' W 072°21'52 7.3
2017-Apr-23 11:49N 41°34' W 071°19'3 9.5
2017-Apr-23 11:30N 41°37' W 071°18'4 8.8
2017-Apr-23 11:00N 41°41' W 071°19'4 8.6
2017-Apr-23 10:30N 41°45' W 071°22'2 3.3
2017-Apr-23 09:53N 41°47' W 071°22'0 0.0
2017-Apr-22 13:58N 41°47' W 071°22'0 0.1
2017-Apr-22 13:25N 41°47' W 071°22'1 3.0
2017-Apr-22 13:00N 41°46' W 071°23'9 6.9
2017-Apr-22 11:43N 41°38' W 071°18'45 6.0
2017-Apr-22 04:17N 41°14' W 072°08'7 9.1
2017-Apr-22 03:34N 41°12' W 072°16'3 9.9
2017-Apr-22 03:15N 41°11' W 072°20'3 9.5
2017-Apr-22 02:58N 41°10' W 072°24'5 9.1
2017-Apr-22 02:25N 41°09' W 072°30'4 8.3
2017-Apr-22 02:00N 41°08' W 072°35'4 8.1
2017-Apr-22 01:30N 41°07' W 072°40'47 7.0
2017-Apr-21 18:46N 40°54' W 073°40'2 7.3
2017-Apr-21 18:26N 40°53' W 073°43'4 7.7
2017-Apr-21 17:51N 40°50' W 073°47'3 5.7
2017-Apr-21 17:23N 40°48' W 073°49'3 7.2
2017-Apr-21 16:59N 40°48' W 073°53'3 5.9
2017-Apr-21 16:30N 40°47' W 073°56'3 5.7
2017-Apr-21 16:00N 40°44' W 073°58'3 5.1
2017-Apr-21 15:30N 40°42' W 074°00'3 5.7
2017-Apr-21 15:00N 40°40' W 074°03'3 5.8
2017-Apr-21 14:30N 40°39' W 074°06'5 5.1
2017-Apr-21 13:30N 40°37' W 074°12'4 0.2
2017-Apr-20 21:52N 40°34' W 074°14'0 0.0
2017-Apr-20 21:28N 40°34' W 074°14'0 0.0
2017-Apr-20 20:58N 40°34' W 074°14'0 0.0
2017-Apr-20 17:28N 40°34' W 074°14'0 0.0
2017-Apr-20 08:58N 40°34' W 074°14'4 1.3
2017-Apr-20 05:53N 40°30' W 074°11'2 4.2
2017-Apr-20 05:30N 40°30' W 074°09'2 4.5
2017-Apr-20 05:00N 40°29' W 074°06'2 4.8
2017-Apr-20 04:30N 40°30' W 074°03'3 6.9
2017-Apr-20 04:00N 40°33' W 074°02'3 5.4
2017-Apr-20 03:29N 40°36' W 074°02'0 0.2
2017-Apr-20 02:59N 40°36' W 074°01'0 0.1
2017-Apr-20 02:29N 40°36' W 074°01'0 0.0
2017-Apr-20 01:56N 40°36' W 074°01'0 0.2
2017-Apr-20 01:29N 40°36' W 074°02'0 0.1
2017-Apr-20 00:56N 40°36' W 074°02'0 0.1
2017-Apr-20 00:26N 40°36' W 074°02'0 0.1
2017-Apr-19 23:59N 40°36' W 074°01'0 0.1
2017-Apr-19 23:26N 40°36' W 074°01'0 0.0
2017-Apr-19 22:53N 40°36' W 074°01'0 0.0
2017-Apr-19 22:29N 40°36' W 074°01'0 0.0
2017-Apr-19 21:53N 40°36' W 074°01'0 0.0
2017-Apr-19 21:29N 40°36' W 074°01'0 0.0
2017-Apr-19 20:59N 40°36' W 074°02'0 0.0
2017-Apr-19 20:29N 40°36' W 074°02'0 0.0
2017-Apr-19 19:59N 40°36' W 074°01'0 0.0
2017-Apr-19 19:29N 40°36' W 074°02'0 0.1
2017-Apr-19 18:59N 40°36' W 074°02'0 0.0
2017-Apr-19 18:29N 40°36' W 074°02'0 0.0
2017-Apr-19 17:56N 40°36' W 074°02'0 0.0
2017-Apr-19 17:29N 40°36' W 074°02'0 0.0
2017-Apr-19 16:59N 40°36' W 074°02'0 0.0
2017-Apr-19 16:26N 40°36' W 074°02'0 0.0
2017-Apr-19 15:59N 40°36' W 074°02'0 0.1
2017-Apr-19 15:29N 40°36' W 074°01'0 0.0
2017-Apr-19 14:53N 40°36' W 074°01'0 0.1
2017-Apr-19 14:29N 40°36' W 074°02'0 0.0
2017-Apr-19 13:23N 40°36' W 074°02'0 0.1
2017-Apr-19 12:59N 40°36' W 074°02'0 0.0
2017-Apr-19 12:29N 40°36' W 074°02'0 0.1
2017-Apr-19 11:59N 40°36' W 074°02'0 0.1
2017-Apr-19 11:29N 40°36' W 074°02'0 0.0
2017-Apr-19 10:59N 40°36' W 074°02'0 0.3
2017-Apr-19 10:29N 40°36' W 074°01'0 0.1
2017-Apr-19 09:50N 40°36' W 074°01'0 0.1
2017-Apr-19 09:29N 40°36' W 074°02'0 0.1
2017-Apr-19 08:59N 40°36' W 074°02'0 0.0
2017-Apr-19 08:29N 40°36' W 074°02'0 0.0
2017-Apr-19 07:59N 40°36' W 074°02'0 0.0
2017-Apr-19 07:26N 40°36' W 074°02'0 0.1
2017-Apr-19 06:59N 40°36' W 074°02'0 0.0
2017-Apr-19 06:29N 40°36' W 074°02'0 0.0
2017-Apr-19 05:59N 40°36' W 074°02'0 0.0
2017-Apr-19 05:29N 40°36' W 074°02'0 0.2
2017-Apr-19 04:53N 40°36' W 074°02'0 0.0
2017-Apr-19 04:20N 40°36' W 074°02'0 0.1
2017-Apr-19 03:59N 40°36' W 074°02'0 0.0
2017-Apr-19 03:29N 40°36' W 074°02'0 0.0
2017-Apr-19 02:59N 40°36' W 074°02'0 0.0
2017-Apr-19 02:29N 40°36' W 074°02'0 0.1
2017-Apr-19 01:59N 40°36' W 074°02'0 0.1
2017-Apr-19 01:29N 40°36' W 074°02'0 0.0
2017-Apr-19 00:59N 40°36' W 074°01'0 0.0
2017-Apr-19 00:29N 40°36' W 074°01'0 0.0
2017-Apr-18 23:59N 40°36' W 074°01'0 0.3
2017-Apr-18 23:29N 40°36' W 074°01'0 0.4
2017-Apr-18 23:00N 40°36' W 074°02'4 7.9
2017-Apr-18 22:31N 40°39' W 074°05'4 8.6
2017-Apr-18 22:01N 40°39' W 074°10'3 5.6
2017-Apr-18 21:29N 40°36' W 074°12'0 0.0
2017-Apr-18 20:16N 40°36' W 074°12'0 0.0
2017-Apr-18 19:49N 40°36' W 074°12'0 0.0
2017-Apr-18 19:25N 40°36' W 074°12'0 0.0
2017-Apr-18 18:55N 40°36' W 074°12'0 0.0
2017-Apr-18 18:19N 40°36' W 074°12'0 0.0
2017-Apr-18 17:55N 40°36' W 074°12'0 0.0
2017-Apr-18 16:55N 40°36' W 074°12'0 0.0
2017-Apr-18 13:07N 40°36' W 074°12'0 0.0
2017-Apr-18 12:46N 40°36' W 074°12'0 0.0
2017-Apr-18 11:19N 40°36' W 074°12'0 0.0
2017-Apr-18 10:52N 40°36' W 074°12'0 0.0
2017-Apr-18 10:22N 40°36' W 074°12'0 0.0
2017-Apr-18 09:55N 40°36' W 074°12'0 0.0
2017-Apr-18 09:25N 40°36' W 074°12'0 0.0
2017-Apr-18 08:55N 40°36' W 074°12'0 0.0
2017-Apr-18 08:28N 40°36' W 074°12'0 0.0
2017-Apr-18 07:58N 40°36' W 074°12'0 0.0
2017-Apr-18 07:28N 40°36' W 074°12'0 0.0
2017-Apr-18 06:52N 40°36' W 074°12'0 0.0
2017-Apr-18 05:49N 40°36' W 074°12'0 0.0
2017-Apr-18 03:56N 40°36' W 074°12'0 0.6
2017-Apr-18 03:30N 40°37' W 074°12'3 5.6
2017-Apr-18 03:01N 40°39' W 074°10'4 7.1
2017-Apr-18 02:31N 40°39' W 074°05'3 6.0
2017-Apr-18 02:01N 40°37' W 074°03'0 0.4
2017-Apr-18 01:29N 40°36' W 074°03'0 0.0
2017-Apr-18 00:59N 40°36' W 074°03'0 0.0
2017-Apr-18 00:29N 40°36' W 074°03'0 0.0
2017-Apr-17 23:59N 40°36' W 074°03'0 0.0
2017-Apr-17 23:29N 40°36' W 074°03'0 0.0
2017-Apr-17 22:59N 40°36' W 074°03'0 0.0
2017-Apr-17 22:29N 40°36' W 074°03'0 0.0
2017-Apr-17 21:59N 40°36' W 074°03'0 0.0
2017-Apr-17 21:26N 40°36' W 074°03'0 0.0
2017-Apr-17 20:59N 40°36' W 074°03'0 0.0
2017-Apr-17 20:29N 40°36' W 074°03'0 0.0
2017-Apr-17 19:56N 40°36' W 074°03'0 0.1
2017-Apr-17 19:29N 40°37' W 074°03'0 0.3
2017-Apr-17 18:59N 40°37' W 074°03'0 0.1
2017-Apr-17 18:29N 40°37' W 074°03'0 0.1
2017-Apr-17 17:59N 40°37' W 074°03'0 0.0
2017-Apr-17 17:29N 40°37' W 074°03'0 0.0
2017-Apr-17 16:59N 40°37' W 074°03'0 0.0
2017-Apr-17 16:29N 40°37' W 074°03'0 0.1
2017-Apr-17 15:59N 40°37' W 074°03'0 0.0
2017-Apr-17 15:26N 40°37' W 074°03'0 0.2
2017-Apr-17 14:59N 40°37' W 074°03'0 0.2
2017-Apr-17 13:56N 40°36' W 074°03'0 0.0
2017-Apr-17 13:29N 40°36' W 074°03'0 0.0
2017-Apr-17 12:59N 40°36' W 074°03'0 0.0
2017-Apr-17 12:29N 40°36' W 074°03'0 0.0
2017-Apr-17 11:59N 40°36' W 074°03'0 0.0
2017-Apr-17 11:29N 40°36' W 074°03'0 0.1
2017-Apr-17 11:00N 40°36' W 074°03'0 0.1
2017-Apr-17 10:30N 40°36' W 074°03'0 0.0
2017-Apr-17 10:00N 40°36' W 074°03'0 0.1
2017-Apr-17 09:30N 40°36' W 074°03'0 0.0
2017-Apr-17 09:00N 40°36' W 074°03'0 0.0
2017-Apr-17 08:30N 40°36' W 074°03'0 0.5
2017-Apr-17 08:00N 40°36' W 074°03'0 0.6
2017-Apr-17 07:30N 40°36' W 074°03'1 1.4
2017-Apr-17 07:00N 40°35' W 074°02'1 2.2
2017-Apr-17 06:30N 40°34' W 074°02'0 0.1
2017-Apr-17 06:00N 40°34' W 074°02'2 3.8
2017-Apr-17 05:30N 40°33' W 074°02'4 6.2
2017-Apr-17 04:54N 40°29' W 074°03'3 0.4
2017-Apr-16 22:44N 40°29' W 074°07'0 0.0
2017-Apr-16 22:29N 40°29' W 074°07'0 0.0
2017-Apr-16 21:44N 40°29' W 074°07'0 0.1
2017-Apr-16 21:29N 40°29' W 074°07'0 0.0
2017-Apr-16 20:59N 40°29' W 074°07'0 0.0
2017-Apr-16 19:41N 40°29' W 074°07'0 0.0
2017-Apr-15 18:01N 40°29' W 074°07'0 1.1
2017-Apr-15 18:00N 40°29' W 074°07'0 0.1
2017-Apr-15 17:24N 40°29' W 074°07'1 3.0
2017-Apr-15 17:00N 40°29' W 074°05'3 5.3
2017-Apr-15 16:30N 40°31' W 074°03'4 7.7
2017-Apr-15 16:00N 40°35' W 074°02'4 7.5
2017-Apr-15 15:30N 40°39' W 074°03'1 2.8
2017-Apr-15 15:00N 40°40' W 074°02'6 5.8
2017-Apr-15 14:00N 40°39' W 074°10'0 0.0
2017-Apr-15 13:30N 40°39' W 074°10'0 0.0
2017-Apr-15 13:00N 40°39' W 074°10'0 0.0
2017-Apr-15 12:30N 40°39' W 074°10'0 0.0
2017-Apr-15 12:00N 40°39' W 074°10'0 0.0
2017-Apr-15 11:30N 40°39' W 074°10'0 0.0
2017-Apr-15 11:00N 40°39' W 074°10'0 0.5
2017-Apr-15 10:30N 40°38' W 074°10'4 8.7
2017-Apr-15 10:00N 40°39' W 074°04'1 2.3
2017-Apr-15 09:29N 40°40' W 074°03'0 0.0
2017-Apr-15 09:00N 40°40' W 074°03'0 0.0
2017-Apr-15 08:29N 40°40' W 074°03'0 0.0
2017-Apr-15 07:59N 40°40' W 074°03'0 0.0
2017-Apr-15 07:29N 40°40' W 074°03'0 0.0
2017-Apr-15 06:59N 40°40' W 074°03'0 0.1
2017-Apr-15 06:30N 40°40' W 074°03'0 0.2
2017-Apr-15 06:00N 40°40' W 074°03'0 0.2
2017-Apr-15 05:30N 40°40' W 074°03'0 0.0
2017-Apr-15 05:00N 40°40' W 074°03'0 0.0
2017-Apr-15 04:29N 40°40' W 074°03'0 0.1
2017-Apr-15 03:59N 40°40' W 074°02'0 0.1
2017-Apr-15 03:29N 40°40' W 074°02'0 0.0
2017-Apr-15 02:59N 40°40' W 074°02'0 0.0
2017-Apr-15 02:30N 40°40' W 074°02'0 0.1
2017-Apr-15 01:59N 40°40' W 074°03'0 0.2
2017-Apr-15 01:29N 40°40' W 074°03'0 0.2
2017-Apr-15 00:59N 40°40' W 074°03'0 0.1
2017-Apr-15 00:29N 40°40' W 074°03'0 0.1
2017-Apr-14 23:59N 40°40' W 074°03'0 0.1
2017-Apr-14 23:29N 40°40' W 074°03'0 0.0
2017-Apr-14 22:59N 40°40' W 074°03'0 0.0
2017-Apr-14 22:30N 40°40' W 074°03'0 0.0
2017-Apr-14 21:59N 40°40' W 074°03'0 0.0
2017-Apr-14 21:29N 40°40' W 074°03'0 0.0
2017-Apr-14 20:59N 40°40' W 074°03'0 0.0
2017-Apr-14 20:29N 40°40' W 074°03'0 0.0
2017-Apr-14 20:00N 40°40' W 074°03'0 0.0
2017-Apr-14 19:30N 40°40' W 074°03'0 0.0
2017-Apr-14 19:00N 40°40' W 074°03'0 0.0
2017-Apr-14 18:30N 40°40' W 074°03'0 0.1
2017-Apr-14 18:00N 40°40' W 074°03'0 0.3
2017-Apr-14 17:30N 40°40' W 074°03'0 0.1
2017-Apr-14 17:00N 40°40' W 074°02'2 4.7
2017-Apr-14 16:30N 40°42' W 074°00'1 2.1
2017-Apr-14 16:00N 40°42' W 073°59'3 6.7
2017-Apr-14 15:30N 40°40' W 074°02'0 0.0
2017-Apr-14 15:00N 40°40' W 074°02'0 0.1
2017-Apr-14 14:00N 40°40' W 074°03'0 0.1
2017-Apr-14 13:30N 40°40' W 074°03'0 0.0
2017-Apr-14 13:00N 40°40' W 074°03'0 0.1
2017-Apr-14 12:30N 40°40' W 074°03'0 0.0
2017-Apr-14 12:00N 40°40' W 074°03'0 0.0
2017-Apr-14 11:30N 40°40' W 074°03'0 0.0
2017-Apr-14 11:00N 40°40' W 074°03'0 0.0
2017-Apr-14 10:30N 40°40' W 074°03'0 0.0
2017-Apr-14 10:00N 40°40' W 074°03'0 0.0
2017-Apr-14 09:30N 40°40' W 074°03'0 0.0
2017-Apr-14 09:00N 40°40' W 074°03'0 0.0
2017-Apr-14 08:30N 40°40' W 074°03'0 0.0
2017-Apr-14 08:00N 40°40' W 074°03'0 0.0
2017-Apr-14 07:30N 40°40' W 074°03'0 0.0
2017-Apr-14 07:00N 40°40' W 074°03'0 0.0
2017-Apr-14 06:30N 40°40' W 074°03'0 0.1
2017-Apr-14 06:00N 40°40' W 074°03'0 0.1
2017-Apr-14 05:30N 40°40' W 074°03'0 0.3
2017-Apr-14 05:00N 40°40' W 074°03'0 0.1
2017-Apr-14 04:30N 40°40' W 074°03'0 0.1
2017-Apr-14 04:00N 40°40' W 074°03'0 0.1
2017-Apr-14 03:30N 40°40' W 074°03'0 0.1
2017-Apr-14 03:00N 40°40' W 074°02'0 0.1
2017-Apr-14 02:30N 40°40' W 074°02'0 0.1
2017-Apr-14 02:00N 40°40' W 074°02'0 0.1
2017-Apr-14 01:30N 40°40' W 074°02'0 0.2
2017-Apr-14 01:00N 40°40' W 074°03'0 0.1
2017-Apr-14 00:30N 40°40' W 074°03'0 0.2
2017-Apr-14 00:00N 40°40' W 074°02'0 0.1
2017-Apr-13 23:30N 40°40' W 074°03'0 0.0
2017-Apr-13 23:00N 40°40' W 074°03'0 0.0
2017-Apr-13 22:30N 40°40' W 074°03'0 0.0
2017-Apr-13 22:00N 40°40' W 074°03'0 0.0
2017-Apr-13 21:30N 40°40' W 074°03'0 0.0
2017-Apr-13 21:00N 40°40' W 074°03'  

Dump ship's entire track history